Time;durP1;ratioP1;P1;durP2;ratioP2;P2;SDS_P1;SDS_P2;PMS_P1;PMS_P2;Temp;Humidity;BMP_temperature;BMP_pressure;BME280_temperature;BME280_humidity;BME280_pressure;Samples;Min_cycle;Max_cycle;Signal;HPM_P1;HPM_P2
2024/03/16 00:01:41;;;;;;;3.97;2.47;;;;;;;9.34;77.60;99546.28;5096352;28;20079;-67
2024/03/16 00:04:10;;;;;;;1.40;1.30;;;;;;;9.34;77.30;99546.28;5096415;28;20036;-67
2024/03/16 00:06:39;;;;;;;0.93;0.82;;;;;;;9.33;77.45;99547.13;5096576;28;20044;-67
2024/03/16 00:09:08;;;;;;;2.10;1.50;;;;;;;9.31;77.01;99543.72;5097238;28;20475;-67
2024/03/16 00:11:39;;;;;;;1.92;1.75;;;;;;;9.29;77.47;99547.97;5080232;28;20516;-67
2024/03/16 00:14:08;;;;;;;2.27;1.97;;;;;;;9.30;77.11;99544.59;5079684;28;20040;-66
2024/03/16 00:16:37;;;;;;;1.60;1.50;;;;;;;9.29;76.77;99542.03;5096481;28;20036;-67
2024/03/16 00:19:05;;;;;;;1.52;1.42;;;;;;;9.27;77.49;99539.50;5096270;28;20490;-66
2024/03/16 00:21:34;;;;;;;2.40;1.77;;;;;;;9.26;77.19;99542.88;5095802;28;20071;-67
2024/03/16 00:24:03;;;;;;;1.35;1.25;;;;;;;9.27;77.09;99544.56;5099565;28;20493;-67
2024/03/16 00:26:32;;;;;;;1.52;1.42;;;;;;;9.24;77.49;99538.63;5099843;28;20078;-67
2024/03/16 00:29:01;;;;;;;1.67;1.53;;;;;;;9.27;77.22;99534.38;5099794;28;20042;-66
2024/03/16 00:31:29;;;;;;;1.90;1.48;;;;;;;9.26;76.80;99537.78;5083017;28;20040;-67
2024/03/16 00:33:58;;;;;;;1.07;0.97;;;;;;;9.17;76.98;99532.66;5099418;28;20036;-67
2024/03/16 00:36:27;;;;;;;4.07;2.15;;;;;;;9.14;77.55;99540.28;5099518;28;20074;-67
2024/03/16 00:38:56;;;;;;;1.13;1.07;;;;;;;9.16;77.00;99543.72;5099596;28;20044;-67
2024/03/16 00:41:25;;;;;;;0.73;0.73;;;;;;;9.16;77.48;99543.72;5082942;28;20512;-66
2024/03/16 00:43:55;;;;;;;1.38;1.08;;;;;;;9.12;77.22;99544.53;5099322;28;20043;-67
2024/03/16 00:46:24;;;;;;;1.53;1.43;;;;;;;9.09;77.95;99542.00;5099448;28;20044;-67
2024/03/16 00:48:53;;;;;;;1.45;1.35;;;;;;;9.09;78.45;99547.09;5099167;28;20128;-66
2024/03/16 00:51:22;;;;;;;1.40;1.30;;;;;;;8.77;78.50;99492.69;5099638;28;20138;-67
2024/03/16 00:53:51;;;;;;;1.83;1.50;;;;;;;9.02;78.62;99544.53;5099563;28;20509;-67
2024/03/16 00:56:20;;;;;;;4.57;1.67;;;;;;;9.02;78.27;99532.63;5098678;28;20067;-67
2024/03/16 00:58:49;;;;;;;1.92;1.60;;;;;;;9.05;79.13;99532.63;5099287;28;20081;-67
2024/03/16 01:01:18;;;;;;;2.47;2.15;;;;;;;9.06;78.70;99533.50;5082512;28;20130;-67
2024/03/16 01:03:47;;;;;;;1.88;1.70;;;;;;;9.05;78.14;99527.53;5099684;28;20481;-66
2024/03/16 01:06:16;;;;;;;1.45;1.27;;;;;;;9.07;79.04;99536.03;5099436;28;20495;-67
2024/03/16 01:08:44;;;;;;;1.63;1.33;;;;;;;9.05;78.53;99532.63;5099114;28;20036;-67
2024/03/16 01:11:13;;;;;;;1.58;1.48;;;;;;;9.01;79.19;99530.94;5098781;28;20040;-66
2024/03/16 01:13:43;;;;;;;2.40;2.03;;;;;;;9.05;78.70;99526.69;5082353;28;20039;-67
2024/03/16 01:16:11;;;;;;;;;;;;;;;9.05;79.18;99522.44;5099494;28;20354;-67
2024/03/16 01:18:40;;;;;;;2.42;2.13;;;;;;;9.04;79.36;99525.88;5098965;28;19955;-67
2024/03/16 01:21:09;;;;;;;2.17;1.17;;;;;;;9.05;78.82;99522.44;5098530;28;20074;-67
2024/03/16 01:23:38;;;;;;;6.32;1.50;;;;;;;9.04;78.81;99515.69;5098451;28;20512;-67
2024/03/16 01:26:07;;;;;;;3.97;2.53;;;;;;;9.10;79.03;99510.59;5098691;28;20514;-67
2024/03/16 01:28:36;;;;;;;1.57;1.37;;;;;;;9.13;78.96;99514.84;5098451;28;20039;-67
2024/03/16 01:31:04;;;;;;;3.10;1.83;;;;;;;9.11;79.45;99507.22;5098429;28;20043;-66
2024/03/16 01:33:33;;;;;;;1.43;1.23;;;;;;;9.09;79.34;99511.44;5098560;28;20074;-67
2024/03/16 01:36:03;;;;;;;1.63;1.52;;;;;;;9.09;79.05;99514.00;5081912;28;20053;-67
2024/03/16 01:38:32;;;;;;;1.38;1.27;;;;;;;9.03;79.23;99497.84;5098767;28;20089;-68
2024/03/16 01:41:00;;;;;;;3.72;3.03;;;;;;;9.06;80.13;99508.91;5098708;28;20039;-66
2024/03/16 01:43:30;;;;;;;2.15;1.67;;;;;;;8.96;79.55;99507.16;5081619;28;20032;-67
2024/03/16 01:45:58;;;;;;;2.40;2.20;;;;;;;8.88;79.55;99498.63;5098207;28;20055;-67
2024/03/16 01:48:27;;;;;;;1.88;1.67;;;;;;;8.95;79.51;99504.63;5097848;28;20035;-67
2024/03/16 01:50:56;;;;;;;2.75;1.88;;;;;;;8.95;80.39;99505.44;5081105;28;20047;-67
2024/03/16 01:53:25;;;;;;;2.10;1.88;;;;;;;8.94;79.77;99506.31;5081376;28;20077;-66
2024/03/16 01:55:54;;;;;;;2.00;1.33;;;;;;;8.90;80.61;99511.41;5081319;28;20389;-67
2024/03/16 01:58:23;;;;;;;2.25;1.88;;;;;;;8.88;80.41;99501.19;5081379;28;20090;-67
2024/03/16 02:00:53;;;;;;;2.47;2.13;;;;;;;8.92;80.31;99505.47;5097592;28;20427;-67
2024/03/16 02:03:22;;;;;;;2.38;2.10;;;;;;;8.99;80.40;99502.09;5081570;28;20080;-67
2024/03/16 02:05:51;;;;;;;1.85;1.63;;;;;;;8.78;80.18;99471.50;5097757;28;20576;-66
2024/03/16 02:08:19;;;;;;;1.80;1.70;;;;;;;9.01;80.57;99505.47;5097487;28;20069;-67
2024/03/16 02:10:48;;;;;;;2.43;1.40;;;;;;;9.01;80.50;99495.31;5081301;28;20040;-67
2024/03/16 02:13:17;;;;;;;1.27;1.17;;;;;;;9.00;80.30;99493.59;5064636;28;20055;-67
2024/03/16 02:15:46;;;;;;;1.50;1.33;;;;;;;8.99;80.38;99494.44;5081745;28;20123;-67
2024/03/16 02:18:15;;;;;;;2.33;1.60;;;;;;;8.91;80.49;99477.44;5097421;28;20363;-67
2024/03/16 02:20:45;;;;;;;2.33;2.05;;;;;;;8.99;81.09;99496.13;5097300;28;20071;-66
2024/03/16 02:23:15;;;;;;;2.92;2.65;;;;;;;8.96;80.89;99494.44;5097642;28;20482;-67
2024/03/16 02:25:44;;;;;;;7.43;2.90;;;;;;;8.96;80.84;99496.13;5097441;28;20501;-67
2024/03/16 02:28:12;;;;;;;2.50;2.30;;;;;;;8.91;80.58;99488.47;5097501;28;20489;-67
2024/03/16 02:30:41;;;;;;;3.23;2.60;;;;;;;8.94;80.70;99502.91;5097186;28;20283;-67
2024/03/16 02:33:10;;;;;;;0.90;0.83;;;;;;;8.94;80.79;99491.03;5097350;28;20272;-67
2024/03/16 02:35:39;;;;;;;2.17;1.80;;;;;;;8.95;81.48;99480.00;5097368;28;20039;-67
2024/03/16 02:38:09;;;;;;;3.03;2.10;;;;;;;9.03;80.72;99491.06;5080958;28;20270;-67
2024/03/16 02:40:38;;;;;;;2.45;2.25;;;;;;;9.04;81.39;99490.22;5097285;28;20079;-67
2024/03/16 02:43:06;;;;;;;2.80;2.45;;;;;;;9.04;80.79;99495.31;5096862;28;20406;-67
2024/03/16 02:45:35;;;;;;;1.13;1.03;;;;;;;9.06;81.24;99487.66;5097513;28;20085;-66
2024/03/16 02:48:05;;;;;;;1.35;1.25;;;;;;;9.04;80.71;99495.31;5080213;28;20291;-67
2024/03/16 02:50:34;;;;;;;3.38;2.13;;;;;;;9.05;81.05;99491.91;5097363;28;20401;-67
2024/03/16 02:53:03;;;;;;;1.92;1.83;;;;;;;9.06;81.10;99492.75;5097328;28;20039;-67
2024/03/16 02:55:32;;;;;;;2.53;1.67;;;;;;;9.04;81.15;99495.31;5096631;28;20044;-67
2024/03/16 02:58:01;;;;;;;4.03;2.35;;;;;;;9.03;81.19;99502.94;5096909;28;20040;-67
2024/03/16 03:00:30;;;;;;;4.17;1.20;;;;;;;8.99;81.30;99496.13;5097146;28;20543;-68
2024/03/16 03:02:58;;;;;;;1.52;1.42;;;;;;;8.86;81.33;99479.97;5096816;28;20122;-67
2024/03/16 03:05:27;;;;;;;0.83;0.83;;;;;;;8.98;81.67;99510.56;5096926;28;20032;-67
2024/03/16 03:07:56;;;;;;;1.60;1.20;;;;;;;8.98;81.97;99510.56;5096412;28;20050;-67
2024/03/16 03:10:25;;;;;;;3.00;1.80;;;;;;;8.98;81.55;99510.56;5096810;28;20451;-67
2024/03/16 03:12:55;;;;;;;2.37;1.67;;;;;;;8.95;81.50;99515.63;5062628;28;20047;-68
2024/03/16 03:15:24;;;;;;;1.98;1.58;;;;;;;8.94;81.84;99513.94;5097157;28;20078;-67
2024/03/16 03:17:53;;;;;;;1.73;1.63;;;;;;;8.94;81.79;99524.13;5096753;28;20100;-67
2024/03/16 03:20:23;;;;;;;1.90;1.80;;;;;;;8.95;81.23;99520.72;5096386;28;20044;-67
2024/03/16 03:22:52;;;;;;;1.10;1.00;;;;;;;8.97;81.43;99524.16;5096815;28;20292;-67
2024/03/16 03:25:21;;;;;;;2.65;1.58;;;;;;;8.96;80.74;99512.25;5080001;28;20042;-67
2024/03/16 03:27:50;;;;;;;2.10;1.67;;;;;;;8.96;81.40;99532.63;5096841;28;20040;-67
2024/03/16 03:30:19;;;;;;;2.97;2.55;;;;;;;8.82;81.43;99498.63;5096306;28;20439;-67
2024/03/16 03:32:48;;;;;;;1.70;1.60;;;;;;;8.96;80.98;99526.66;5079997;28;20089;-68
2024/03/16 03:35:16;;;;;;;1.08;1.00;;;;;;;8.95;81.31;99525.81;5080052;28;20043;-67
2024/03/16 03:37:45;;;;;;;0.87;0.87;;;;;;;8.99;81.72;99516.50;5096608;28;20035;-67
2024/03/16 03:40:14;;;;;;;1.88;1.73;;;;;;;8.98;81.36;99515.66;5096779;28;20126;-67
2024/03/16 03:42:47;;;;;;;2.33;2.13;;;;;;;8.91;81.48;99503.75;5096039;28;20035;-67
2024/03/16 03:45:37;;;;;;;0.57;0.57;;;;;;;9.05;80.65;99521.59;5097191;28;20070;-67
2024/03/16 03:48:24;;;;;;;;;;;;;;;9.07;80.93;99525.03;5100065;28;20039;-67
2024/03/16 03:50:54;;;;;;;2.13;1.92;;;;;;;9.02;81.02;99519.88;5113190;28;19955;-67
2024/03/16 03:53:22;;;;;;;2.13;1.85;;;;;;;8.95;80.92;99510.53;5079802;28;20036;-68
2024/03/16 03:55:51;;;;;;;1.85;1.20;;;;;;;9.00;80.40;99518.22;5079029;28;20059;-68
2024/03/16 03:58:21;;;;;;;1.75;1.65;;;;;;;9.05;80.86;99519.91;5079770;28;20063;-67
2024/03/16 04:00:50;;;;;;;0.88;0.82;;;;;;;9.11;80.32;99517.38;5096315;28;20032;-66
2024/03/16 04:03:19;;;;;;;2.27;2.07;;;;;;;9.14;80.87;99517.38;5096236;28;20404;-67
2024/03/16 04:05:48;;;;;;;1.90;1.47;;;;;;;9.15;80.86;99514.00;5079547;28;20142;-68
2024/03/16 04:08:16;;;;;;;1.15;1.02;;;;;;;9.15;80.78;99508.91;5080140;28;20039;-67
2024/03/16 04:10:45;;;;;;;1.15;1.05;;;;;;;9.17;81.43;99514.84;5096220;28;20028;-66
2024/03/16 04:13:14;;;;;;;1.17;1.02;;;;;;;9.20;80.87;99521.63;5095915;28;20134;-67
2024/03/16 04:15:43;;;;;;;1.47;1.37;;;;;;;9.20;81.17;99519.94;5096222;28;20036;-66
2024/03/16 04:18:12;;;;;;;1.35;1.25;;;;;;;9.20;81.44;99517.41;5096100;28;20416;-67
2024/03/16 04:20:41;;;;;;;1.60;1.40;;;;;;;9.21;81.73;99521.63;5095820;28;20047;-67
2024/03/16 04:23:10;;;;;;;1.70;1.42;;;;;;;9.19;81.29;99525.88;5079760;28;20288;-67
2024/03/16 04:25:38;;;;;;;1.77;1.67;;;;;;;9.18;80.94;99529.28;5099913;28;20035;-67
2024/03/16 04:28:08;;;;;;;2.97;2.20;;;;;;;9.17;81.64;99521.63;5099967;28;20062;-67
2024/03/16 04:30:37;;;;;;;1.30;1.20;;;;;;;9.18;80.94;99525.88;5083971;28;20497;-67
2024/03/16 04:33:07;;;;;;;1.10;1.00;;;;;;;9.17;81.26;99517.38;5083256;28;20044;-67
2024/03/16 04:35:36;;;;;;;1.73;1.63;;;;;;;9.17;80.90;99519.94;5083366;28;20406;-67
2024/03/16 04:38:05;;;;;;;2.00;1.83;;;;;;;9.08;80.50;99504.66;5100202;28;20043;-67
2024/03/16 04:40:33;;;;;;;0.70;0.70;;;;;;;9.15;81.38;99519.09;5082444;28;20051;-67
2024/03/16 04:43:02;;;;;;;3.00;1.67;;;;;;;9.15;81.14;99534.38;5099271;28;20489;-67
2024/03/16 04:45:31;;;;;;;;;;;;;;;9.11;81.15;99532.66;5100072;28;20550;-67
2024/03/16 04:48:00;;;;;;;1.15;1.05;;;;;;;9.04;80.48;99533.50;5116041;28;20007;-67
2024/03/16 04:50:29;;;;;;;2.00;1.67;;;;;;;9.05;81.50;99542.81;5082894;28;20036;-67
2024/03/16 04:52:58;;;;;;;0.73;0.73;;;;;;;9.02;81.26;99542.78;5099066;28;20296;-67
2024/03/16 04:55:27;;;;;;;1.05;0.93;;;;;;;8.96;80.69;99542.78;5065220;28;20431;-66
2024/03/16 04:57:57;;;;;;;0.68;0.65;;;;;;;8.96;81.38;99544.47;5099152;28;20040;-66
2024/03/16 05:00:26;;;;;;;0.93;0.93;;;;;;;8.94;81.39;99534.31;5099532;28;20044;-67
2024/03/16 05:02:55;;;;;;;0.87;0.83;;;;;;;8.99;81.50;99542.81;5099179;28;20046;-67
2024/03/16 05:05:24;;;;;;;2.17;1.97;;;;;;;8.99;81.47;99537.72;5098791;28;20138;-67
2024/03/16 05:07:53;;;;;;;1.60;1.17;;;;;;;9.01;81.44;99536.03;5099120;28;20044;-67
2024/03/16 05:10:21;;;;;;;0.77;0.77;;;;;;;9.02;81.31;99535.16;5098996;28;20393;-67
2024/03/16 05:12:50;;;;;;;1.30;1.20;;;;;;;9.04;80.89;99540.28;5099170;28;20035;-66
2024/03/16 05:15:19;;;;;;;0.80;0.80;;;;;;;9.02;80.60;99535.16;5098631;28;20592;-66
2024/03/16 05:17:48;;;;;;;5.25;3.03;;;;;;;9.00;80.71;99541.13;5081996;28;20485;-67
2024/03/16 05:20:17;;;;;;;2.55;2.22;;;;;;;8.97;81.41;99554.69;5099131;28;20067;-66
2024/03/16 05:22:45;;;;;;;4.97;1.58;;;;;;;8.96;81.09;99552.97;5098607;28;20059;-67
2024/03/16 05:25:15;;;;;;;1.80;1.70;;;;;;;8.97;81.65;99554.69;5098693;28;20039;-66
2024/03/16 05:27:44;;;;;;;1.75;1.13;;;;;;;9.01;81.45;99556.38;5082422;28;20130;-67
2024/03/16 05:30:15;;;;;;;2.33;2.10;;;;;;;9.00;81.19;99554.69;5098657;28;20062;-66
2024/03/16 05:32:44;;;;;;;1.85;1.67;;;;;;;8.99;81.76;99563.19;5098595;28;20298;-67
2024/03/16 05:35:13;;;;;;;1.20;1.10;;;;;;;8.95;81.02;99556.34;5097575;28;20043;-67
2024/03/16 05:37:41;;;;;;;3.10;2.08;;;;;;;9.00;81.46;99559.75;5098214;28;20047;-67
2024/03/16 05:40:11;;;;;;;1.48;1.13;;;;;;;9.04;81.59;99561.50;5082174;28;20113;-67
2024/03/16 05:42:40;;;;;;;1.63;1.50;;;;;;;9.09;81.45;99559.81;5098195;28;20562;-67
2024/03/16 05:45:09;;;;;;;;;;;;;;;9.11;81.95;99560.66;5098734;28;20046;-67
2024/03/16 05:47:38;;;;;;;1.02;0.93;;;;;;;9.09;81.45;99559.81;5098054;28;19926;-67
2024/03/16 05:50:07;;;;;;;5.80;3.45;;;;;;;9.11;81.76;99568.31;5081422;28;20389;-67
2024/03/16 05:52:37;;;;;;;1.80;1.70;;;;;;;9.15;81.91;99572.56;5081772;28;20048;-67
2024/03/16 05:55:07;;;;;;;1.73;1.63;;;;;;;9.18;81.65;99564.94;5094007;28;20172;-67
2024/03/16 05:57:36;;;;;;;1.45;1.30;;;;;;;9.21;81.85;99575.09;5077896;28;20036;-67
2024/03/16 06:00:13;;;;;;;1.53;1.43;;;;;;;9.25;81.94;99574.28;5077876;28;20040;-67
2024/03/16 06:02:42;;;;;;;2.05;1.40;;;;;;;9.17;82.86;99549.63;5078914;28;20277;-67
2024/03/16 06:05:11;;;;;;;2.20;1.88;;;;;;;9.29;82.94;99573.44;5077494;28;20038;-67
2024/03/16 06:07:42;;;;;;;2.37;1.70;;;;;;;9.27;83.12;99564.94;5077519;28;20043;-67
2024/03/16 06:10:11;;;;;;;1.35;1.25;;;;;;;9.34;82.87;99576.00;5045193;28;20050;-66
2024/03/16 06:12:40;;;;;;;1.42;1.33;;;;;;;9.37;83.46;99571.78;5060914;28;20063;-67
2024/03/16 06:15:09;;;;;;;0.60;0.60;;;;;;;9.39;83.15;99579.41;5077430;28;20047;-67
2024/03/16 06:17:37;;;;;;;3.37;2.33;;;;;;;9.42;83.39;99585.38;5060988;28;20044;-68
2024/03/16 06:20:09;;;;;;;3.33;2.17;;;;;;;9.41;83.13;99588.75;5044282;28;20043;-67
2024/03/16 06:22:38;;;;;;;2.10;1.90;;;;;;;9.47;83.53;99599.81;5061725;28;20039;-68
2024/03/16 06:25:07;;;;;;;3.53;1.33;;;;;;;9.48;83.98;99598.97;5077044;28;20131;-67
2024/03/16 06:27:43;;;;;;;4.78;2.30;;;;;;;9.45;83.37;99590.44;5077394;28;20043;-67
2024/03/16 06:30:13;;;;;;;2.47;2.28;;;;;;;9.51;83.24;99596.41;5062872;28;20142;-67
2024/03/16 06:32:48;;;;;;;;;;;;;;;9.49;82.94;99604.06;5061064;28;20048;-68
2024/03/16 06:35:17;;;;;;;3.25;2.35;;;;;;;9.55;82.55;99600.69;5077909;28;20458;-68
2024/03/16 06:37:46;;;;;;;2.58;2.17;;;;;;;9.53;82.25;99592.16;5076556;28;20091;-68
2024/03/16 06:40:16;;;;;;;0.68;0.68;;;;;;;9.51;81.87;99604.03;5060762;28;20044;-68
2024/03/16 06:42:45;;;;;;;3.63;1.90;;;;;;;9.55;82.61;99605.78;5076787;28;20430;-68
2024/03/16 06:45:14;;;;;;;1.33;1.23;;;;;;;9.64;81.97;99605.78;5076619;28;20131;-67
2024/03/16 06:47:43;;;;;;;2.53;1.63;;;;;;;9.66;81.81;99604.09;5076665;28;20040;-67
2024/03/16 06:50:12;;;;;;;2.53;2.15;;;;;;;9.67;82.18;99605.81;5060104;28;20289;-67
2024/03/16 06:52:41;;;;;;;;;;;;;;;9.74;81.93;99599.88;5061150;28;20040;-67
2024/03/16 06:55:10;;;;;;;3.53;1.73;;;;;;;9.78;81.65;99610.06;5059760;28;19927;-67
2024/03/16 06:57:39;;;;;;;1.70;1.50;;;;;;;9.85;81.68;99613.47;5076840;28;20075;-67
2024/03/16 07:00:11;;;;;;;6.25;2.90;;;;;;;9.87;81.44;99612.59;5076603;28;20044;-67
2024/03/16 07:02:40;;;;;;;7.35;2.55;;;;;;;9.88;81.35;99618.56;5076733;28;20082;-67
2024/03/16 07:05:09;;;;;;;2.90;2.60;;;;;;;9.95;81.62;99625.38;5076502;28;20111;-67
2024/03/16 07:07:38;;;;;;;2.55;2.33;;;;;;;9.94;81.63;99616.88;5060303;28;20134;-67
2024/03/16 07:10:08;;;;;;;3.63;3.30;;;;;;;9.99;82.04;99615.16;5076660;28;20036;-68
2024/03/16 07:12:37;;;;;;;1.75;1.65;;;;;;;10.04;82.13;99610.06;5076998;28;20489;-67
2024/03/16 07:15:07;;;;;;;0.83;0.83;;;;;;;10.06;81.50;99623.66;5076490;28;20045;-67
2024/03/16 07:17:37;;;;;;;3.15;2.85;;;;;;;10.08;81.83;99624.50;5076515;28;20564;-68
2024/03/16 07:20:10;;;;;;;3.25;2.35;;;;;;;10.12;80.91;99636.47;5076470;28;20101;-68
2024/03/16 07:22:40;;;;;;;1.67;1.58;;;;;;;10.10;80.99;99638.13;5076972;28;20043;-67
2024/03/16 07:25:08;;;;;;;2.30;2.10;;;;;;;10.10;80.55;99648.34;5076270;28;20481;-66
2024/03/16 07:27:37;;;;;;;1.92;1.77;;;;;;;10.12;80.02;99651.75;5076468;28;20036;-67
2024/03/16 07:30:07;;;;;;;1.83;1.07;;;;;;;10.19;80.26;99653.47;5059817;28;20043;-67
2024/03/16 07:32:36;;;;;;;11.43;4.70;;;;;;;10.15;79.73;99651.75;5076738;28;20450;-67
2024/03/16 07:35:06;;;;;;;2.47;1.97;;;;;;;10.17;79.65;99660.28;5059457;28;20398;-67
2024/03/16 07:37:35;;;;;;;2.53;1.58;;;;;;;10.22;80.07;99661.09;5060571;28;20048;-67
2024/03/16 07:40:06;;;;;;;0.80;0.80;;;;;;;10.28;80.01;99658.56;5076198;28;20032;-67
2024/03/16 07:42:35;;;;;;;3.13;1.48;;;;;;;10.37;79.45;99657.69;5060222;28;20074;-67
2024/03/16 07:45:04;;;;;;;4.37;2.57;;;;;;;10.45;80.10;99654.31;5059719;28;20040;-67
2024/03/16 07:47:33;;;;;;;1.95;1.75;;;;;;;10.59;79.49;99664.50;5059554;28;20146;-67
2024/03/16 07:50:05;;;;;;;2.20;1.63;;;;;;;10.68;79.47;99654.25;5043100;28;20075;-67
2024/03/16 07:52:34;;;;;;;3.50;2.78;;;;;;;10.75;79.11;99656.81;5060568;28;20105;-67
2024/03/16 07:55:06;;;;;;;7.50;2.15;;;;;;;10.78;79.05;99654.25;5075819;28;20082;-67
2024/03/16 07:57:36;;;;;;;0.90;0.90;;;;;;;10.82;78.97;99656.81;5076541;28;20137;-67
2024/03/16 08:00:10;;;;;;;2.58;1.88;;;;;;;10.83;78.56;99666.16;5079572;28;20048;-67
2024/03/16 08:02:40;;;;;;;2.38;1.67;;;;;;;10.90;78.71;99657.63;5080988;28;20046;-67
2024/03/16 08:05:11;;;;;;;2.65;2.45;;;;;;;11.04;79.08;99658.44;5079618;28;20040;-67
2024/03/16 08:07:41;;;;;;;1.63;1.17;;;;;;;11.24;79.12;99669.44;5080122;28;20043;-68
2024/03/16 08:10:10;;;;;;;3.55;1.85;;;;;;;11.31;78.56;99668.56;5063488;28;20411;-68
2024/03/16 08:12:39;;;;;;;1.60;1.35;;;;;;;11.40;78.22;99663.41;5063423;28;20055;-67
2024/03/16 08:15:09;;;;;;;3.53;2.47;;;;;;;11.41;77.49;99660.00;5079524;28;20043;-67
2024/03/16 08:17:37;;;;;;;1.45;1.35;;;;;;;11.39;76.85;99657.47;5079578;28;20436;-67
2024/03/16 08:20:08;;;;;;;0.95;0.90;;;;;;;11.52;76.56;99658.25;5079626;28;20077;-68
2024/03/16 08:22:37;;;;;;;2.03;1.83;;;;;;;11.60;76.18;99665.88;5080263;28;20051;-68
2024/03/16 08:25:06;;;;;;;2.35;1.42;;;;;;;11.69;75.86;99666.72;5063179;28;20039;-68
2024/03/16 08:27:36;;;;;;;2.97;1.85;;;;;;;11.79;75.59;99658.13;5079666;28;20055;-69
2024/03/16 08:30:06;;;;;;;5.53;1.98;;;;;;;11.92;75.02;99667.44;5079529;28;20129;-69
2024/03/16 08:32:35;;;;;;;1.63;1.50;;;;;;;12.08;74.88;99666.47;5063202;28;20043;-68
2024/03/16 08:35:05;;;;;;;1.47;1.37;;;;;;;12.27;74.63;99677.41;5079138;28;20044;-69
2024/03/16 08:37:34;;;;;;;3.70;1.35;;;;;;;12.42;73.82;99677.31;5079447;28;20135;-69
2024/03/16 08:40:11;;;;;;;2.07;1.87;;;;;;;12.59;73.40;99669.47;5079318;28;20044;-69
2024/03/16 08:42:41;;;;;;;1.30;1.20;;;;;;;12.69;73.11;99671.91;5065275;28;20050;-69
2024/03/16 08:45:10;;;;;;;1.20;1.10;;;;;;;12.69;71.97;99671.09;5078936;28;20486;-69
2024/03/16 08:47:41;;;;;;;3.13;1.90;;;;;;;12.71;71.33;99671.91;5062789;28;20036;-68
2024/03/16 08:50:10;;;;;;;3.28;2.22;;;;;;;12.77;71.39;99669.28;5079571;28;20094;-68
2024/03/16 08:52:39;;;;;;;1.83;1.70;;;;;;;12.83;70.28;99664.13;5079022;28;20062;-69
2024/03/16 08:55:12;;;;;;;0.98;0.98;;;;;;;12.83;69.96;99669.25;5078608;28;20289;-69
2024/03/16 08:57:41;;;;;;;1.35;1.23;;;;;;;12.98;69.45;99663.94;5079630;28;20044;-69
2024/03/16 09:00:15;;;;;;;1.95;1.27;;;;;;;13.19;69.31;99658.63;5079480;28;20047;-69
2024/03/16 09:02:45;;;;;;;1.45;1.35;;;;;;;13.36;68.52;99659.25;5080073;28;20089;-69
2024/03/16 09:05:14;;;;;;;5.85;1.80;;;;;;;13.28;67.77;99649.97;5078879;28;20123;-69
2024/03/16 09:07:42;;;;;;;3.00;2.13;;;;;;;13.36;68.06;99655.84;5078441;28;20059;-68
2024/03/16 09:10:11;;;;;;;4.87;3.27;;;;;;;13.30;67.76;99661.91;5077366;28;20490;-69
2024/03/16 09:12:40;;;;;;;3.05;2.80;;;;;;;13.34;67.40;99655.84;5062211;28;20268;-69
2024/03/16 09:15:09;;;;;;;2.75;2.08;;;;;;;13.44;67.28;99654.88;5078739;28;20379;-69
2024/03/16 09:17:38;;;;;;;8.48;2.75;;;;;;;13.51;67.22;99639.44;5078542;28;20162;-69
2024/03/16 09:20:09;;;;;;;3.70;2.07;;;;;;;13.64;66.77;99656.34;5062135;28;20134;-69
2024/03/16 09:22:39;;;;;;;2.22;1.92;;;;;;;13.73;66.84;99645.94;5078809;28;20432;-69
2024/03/16 09:25:08;;;;;;;1.73;1.63;;;;;;;13.69;66.27;99644.31;5078286;28;20047;-69
2024/03/16 09:27:38;;;;;;;2.65;1.63;;;;;;;13.52;65.53;99651.38;5078280;28;20044;-69
2024/03/16 09:30:08;;;;;;;1.15;1.05;;;;;;;13.44;65.16;99644.63;5062173;28;20075;-68
2024/03/16 09:32:37;;;;;;;1.52;1.13;;;;;;;13.43;64.92;99642.09;5062506;28;20131;-69
2024/03/16 09:35:07;;;;;;;1.43;1.33;;;;;;;13.57;64.66;99649.59;5078823;28;20040;-69
2024/03/16 09:37:36;;;;;;;2.72;1.52;;;;;;;13.60;64.38;99649.56;5078496;28;20285;-69
2024/03/16 09:40:09;;;;;;;2.72;2.05;;;;;;;13.58;64.52;99652.13;5078190;28;20040;-69
2024/03/16 09:42:40;;;;;;;4.30;1.55;;;;;;;13.60;64.14;99655.56;5079012;28;20078;-69
2024/03/16 09:45:11;;;;;;;5.80;3.27;;;;;;;13.62;64.15;99663.22;5077985;28;20032;-69
2024/03/16 09:47:38;;;;;;;5.13;3.75;;;;;;;13.85;64.39;99645.78;5061079;28;20323;-69
2024/03/16 09:50:09;;;;;;;2.72;2.10;;;;;;;13.92;63.98;99649.94;5061151;28;20407;-69
2024/03/16 09:52:40;;;;;;;1.40;1.30;;;;;;;13.90;64.15;99654.25;5029154;28;20077;-69
2024/03/16 09:55:10;;;;;;;4.28;1.35;;;;;;;13.89;64.04;99647.44;5062052;28;20097;-68
2024/03/16 09:57:39;;;;;;;2.88;1.98;;;;;;;13.91;63.81;99650.84;5061020;28;20508;-69
2024/03/16 10:00:08;;;;;;;1.73;1.63;;;;;;;13.96;64.06;99655.00;5061449;28;20546;-69
2024/03/16 10:02:39;;;;;;;4.50;1.50;;;;;;;14.06;64.00;99658.28;5046220;28;20079;-68
2024/03/16 10:05:11;;;;;;;1.02;0.90;;;;;;;14.17;64.39;99661.53;5061089;28;20066;-69
2024/03/16 10:07:39;;;;;;;1.10;1.00;;;;;;;14.27;64.36;99660.53;5061921;28;20036;-69
2024/03/16 10:10:10;;;;;;;5.00;1.33;;;;;;;14.29;64.31;99663.91;5027748;28;20097;-69
2024/03/16 10:12:40;;;;;;;2.38;1.50;;;;;;;14.16;63.86;99662.41;5062183;28;20044;-68
2024/03/16 10:15:15;;;;;;;2.60;1.73;;;;;;;14.15;64.03;99660.72;5061280;28;20048;-68
2024/03/16 10:17:43;;;;;;;4.47;2.03;;;;;;;14.20;64.41;99661.50;5046257;28;20079;-69
2024/03/16 10:20:15;;;;;;;1.70;1.60;;;;;;;14.17;63.84;99661.53;5060736;28;20036;-68
2024/03/16 10:22:47;;;;;;;3.50;2.97;;;;;;;14.08;64.19;99659.13;5061759;28;20048;-69
2024/03/16 10:25:15;;;;;;;1.38;1.27;;;;;;;14.04;64.93;99663.44;5061242;28;20040;-68
2024/03/16 10:27:44;;;;;;;2.87;2.10;;;;;;;14.10;64.54;99667.66;5060694;28;20494;-71
2024/03/16 10:30:11;;;;;;;3.13;1.88;;;;;;;14.07;64.50;99663.41;5061091;28;20040;-69
2024/03/16 10:32:39;;;;;;;3.28;2.25;;;;;;;14.04;64.44;99657.47;5060664;28;20044;-69
2024/03/16 10:35:10;;;;;;;1.90;1.52;;;;;;;14.09;64.42;99658.25;5077541;28;20051;-68
2024/03/16 10:37:39;;;;;;;3.70;2.30;;;;;;;14.28;64.40;99657.09;5060856;28;20048;-68
2024/03/16 10:40:16;;;;;;;3.28;2.95;;;;;;;14.62;64.48;99663.38;5060100;28;20044;-68
2024/03/16 10:42:44;;;;;;;2.28;1.83;;;;;;;14.90;64.08;99658.59;5062280;28;20078;-69
2024/03/16 10:45:16;;;;;;;1.98;1.80;;;;;;;15.05;63.97;99657.47;5060524;28;20488;-69
2024/03/16 10:47:45;;;;;;;1.65;1.55;;;;;;;15.12;63.78;99659.03;5061480;28;20040;-69
2024/03/16 10:50:13;;;;;;;2.17;1.97;;;;;;;15.01;62.54;99660.97;5060406;28;20040;-68
2024/03/16 10:52:43;;;;;;;1.95;1.60;;;;;;;15.00;62.25;99659.25;5027288;28;20093;-68
2024/03/16 10:55:14;;;;;;;4.38;2.55;;;;;;;15.03;62.23;99659.22;5060717;28;20044;-68
2024/03/16 10:57:42;;;;;;;2.22;2.03;;;;;;;14.93;62.27;99639.69;5060602;28;20040;-69
2024/03/16 11:00:34;;;;;;;3.25;2.63;;;;;;;15.20;61.81;99647.75;5060417;28;20036;-68
2024/03/16 11:03:07;;;;;;;7.75;2.67;;;;;;;15.25;61.71;99647.63;5050942;28;20040;-68
2024/03/16 11:05:39;;;;;;;1.10;0.98;;;;;;;15.17;61.24;99645.22;5061434;28;20044;-68
2024/03/16 11:08:45;;;;;;;2.45;1.50;;;;;;;15.31;62.03;99644.94;5044127;28;20414;-69
2024/03/16 11:11:12;;;;;;;3.78;1.92;;;;;;;15.19;61.67;99640.03;5092935;28;20040;-68
2024/03/16 11:13:41;;;;;;;1.85;1.50;;;;;;;15.24;61.96;99649.34;5060146;28;20040;-68
2024/03/16 11:16:27;;;;;;;3.15;2.58;;;;;;;15.26;62.12;99649.34;5059797;28;20043;-69
2024/03/16 11:18:58;;;;;;;1.10;1.00;;;;;;;15.28;62.11;99650.97;5076111;28;20557;-68
2024/03/16 11:21:27;;;;;;;1.77;1.65;;;;;;;15.39;62.43;99643.91;5043941;28;20073;-68
2024/03/16 11:23:59;;;;;;;3.97;2.72;;;;;;;15.51;62.65;99647.97;5059821;28;20040;-68
2024/03/16 11:26:45;;;;;;;2.40;2.20;;;;;;;15.56;62.50;99635.88;5060725;28;20055;-68
2024/03/16 11:29:14;;;;;;;4.80;2.60;;;;;;;15.50;62.78;99645.44;5076002;28;20066;-69
2024/03/16 11:31:42;;;;;;;2.65;2.10;;;;;;;15.39;62.77;99640.50;5059976;28;20098;-68
2024/03/16 11:34:08;;;;;;;4.40;2.78;;;;;;;15.27;62.41;99643.31;5058819;28;20036;-69
2024/03/16 11:36:39;;;;;;;2.08;1.65;;;;;;;15.17;62.63;99641.78;5059400;28;20028;-69
2024/03/16 11:39:11;;;;;;;4.55;1.90;;;;;;;15.19;63.16;99634.91;5060534;28;20056;-68
2024/03/16 11:41:46;;;;;;;4.75;1.48;;;;;;;15.10;63.57;99635.09;5044666;28;20123;-68
2024/03/16 11:44:13;;;;;;;1.60;1.23;;;;;;;15.16;63.69;99625.53;5044194;28;20078;-68
2024/03/16 11:46:44;;;;;;;2.55;1.98;;;;;;;15.22;64.40;99620.25;5042687;28;20036;-68
2024/03/16 11:49:11;;;;;;;2.90;1.88;;;;;;;15.30;64.31;99612.41;5059470;28;20075;-68
2024/03/16 11:51:41;;;;;;;4.43;2.05;;;;;;;15.32;64.32;99610.63;5059450;28;20040;-68